Time;durP1;ratioP1;P1;durP2;ratioP2;P2;SDS_P1;SDS_P2;PMS_P1;PMS_P2;Temp;Humidity;BMP_temperature;BMP_pressure;BME280_temperature;BME280_humidity;BME280_pressure;Samples;Min_cycle;Max_cycle;Signal;HPM_P1;HPM_P2
2022/10/12 00:00:18;;;;;;;27.73;17.60;;;;;;;4.79;100.00;102444.09;5032704;28;20446;-60
2022/10/12 00:02:44;;;;;;;27.67;17.70;;;;;;;4.76;100.00;102433.56;5032845;28;20064;-60
2022/10/12 00:05:09;;;;;;;27.85;17.63;;;;;;;4.75;100.00;102436.53;5032956;28;20449;-58
2022/10/12 00:07:35;;;;;;;26.08;17.33;;;;;;;4.74;100.00;102441.19;5033542;28;20062;-59
2022/10/12 00:10:00;;;;;;;27.67;17.23;;;;;;;4.69;100.00;102443.78;5033423;28;20026;-60
2022/10/12 00:12:26;;;;;;;27.08;16.52;;;;;;;4.69;100.00;102449.25;5032978;28;20029;-59
2022/10/12 00:14:51;;;;;;;29.23;17.02;;;;;;;4.71;100.00;102443.53;5032605;28;20047;-60
2022/10/12 00:17:16;;;;;;;27.42;17.48;;;;;;;4.68;100.00;102439.34;5032570;28;20034;-60
2022/10/12 00:19:41;;;;;;;27.80;18.02;;;;;;;4.67;100.00;102437.69;5033104;28;20017;-60
2022/10/12 00:22:07;;;;;;;26.10;17.00;;;;;;;4.68;100.00;102433.88;5032590;28;20033;-60
2022/10/12 00:24:32;;;;;;;24.55;16.77;;;;;;;4.62;100.00;102432.03;5033429;28;20083;-60
2022/10/12 00:26:57;;;;;;;27.45;16.80;;;;;;;4.56;100.00;102428.31;5032985;28;20025;-60
2022/10/12 00:29:23;;;;;;;24.73;16.98;;;;;;;4.56;100.00;102430.19;5032806;28;20057;-60
2022/10/12 00:31:48;;;;;;;27.05;16.52;;;;;;;4.55;100.00;102434.00;5032538;28;20056;-60
2022/10/12 00:34:14;;;;;;;24.88;16.42;;;;;;;4.50;100.00;102438.28;5032392;28;20029;-60
2022/10/12 00:36:39;;;;;;;26.10;16.60;;;;;;;4.49;100.00;102433.84;5032546;28;20059;-59
2022/10/12 00:39:08;;;;;;;27.35;16.92;;;;;;;4.45;100.00;102429.03;5032147;28;20569;-58
2022/10/12 00:41:37;;;;;;;25.17;17.00;;;;;;;4.49;100.00;102433.00;5032423;28;20112;-58
2022/10/12 00:44:02;;;;;;;24.02;17.33;;;;;;;4.49;100.00;102438.47;5032780;28;20036;-58
2022/10/12 00:46:27;;;;;;;24.20;16.42;;;;;;;4.44;100.00;102433.66;5032429;28;20109;-60
2022/10/12 00:48:58;;;;;;;25.03;17.00;;;;;;;4.39;100.00;102425.31;5032010;28;20442;-59
2022/10/12 00:51:23;;;;;;;24.40;16.48;;;;;;;4.45;100.00;102432.59;5031778;28;20283;-61
2022/10/12 00:53:57;;;;;;;26.42;17.80;;;;;;;4.39;100.00;102429.97;5031959;28;20041;-59
2022/10/12 00:56:26;;;;;;;30.85;17.65;;;;;;;4.49;100.00;102441.22;5032195;28;20037;-60
2022/10/12 00:58:53;;;;;;;25.20;16.83;;;;;;;4.49;100.00;102433.84;5032129;28;20024;-59
2022/10/12 01:01:20;;;;;;;25.95;17.10;;;;;;;4.53;100.00;102434.22;5031205;28;20045;-60
2022/10/12 01:03:46;;;;;;;24.02;16.60;;;;;;;4.57;100.00;102434.63;5030238;28;20022;-58
2022/10/12 01:06:11;;;;;;;24.65;17.65;;;;;;;4.59;100.00;102438.78;5031593;28;20520;-60
2022/10/12 01:08:37;;;;;;;28.05;17.38;;;;;;;4.63;100.00;102433.72;5031506;28;20109;-58
2022/10/12 01:11:02;;;;;;;24.73;17.67;;;;;;;4.63;100.00;102433.72;5027853;28;20029;-60
2022/10/12 01:13:29;;;;;;;24.00;16.48;;;;;;;4.67;100.00;102432.19;5031442;28;20367;-60
2022/10/12 01:16:10;;;;;;;24.50;17.25;;;;;;;4.65;100.00;102423.34;5031695;28;20086;-60
2022/10/12 01:18:58;;;;;;;25.17;17.80;;;;;;;4.72;100.00;102426.88;5030245;28;20385;-60
2022/10/12 01:21:24;;;;;;;23.77;16.75;;;;;;;4.68;100.00;102415.50;5030786;28;20030;-59
2022/10/12 01:24:25;;;;;;;23.95;17.05;;;;;;;4.72;100.00;102420.53;5031817;28;20156;-59
2022/10/12 01:27:01;;;;;;;24.17;16.50;;;;;;;4.72;100.00;102421.41;5030386;28;20026;-59
2022/10/12 01:30:01;;;;;;;25.33;16.70;;;;;;;4.74;100.00;102413.75;5031512;28;20358;-58
2022/10/12 01:32:48;;;;;;;27.85;17.25;;;;;;;4.73;100.00;102409.34;5031564;28;20026;-59
2022/10/12 01:35:32;;;;;;;26.90;17.15;;;;;;;4.72;100.00;102407.69;5029403;28;20036;-59
2022/10/12 01:38:05;;;;;;;24.63;16.67;;;;;;;4.72;100.00;102404.94;5030884;28;20078;-60
2022/10/12 01:40:43;;;;;;;24.83;16.17;;;;;;;4.73;100.00;102398.38;5031343;28;20109;-60
2022/10/12 01:43:08;;;;;;;24.02;16.75;;;;;;;4.71;100.00;102392.31;5030954;28;20099;-59
2022/10/12 01:45:33;;;;;;;25.52;17.10;;;;;;;4.73;100.00;102394.81;5031132;28;20030;-59
2022/10/12 01:48:00;;;;;;;24.92;16.77;;;;;;;4.72;100.00;102393.97;5030807;28;20450;-59
2022/10/12 01:50:35;;;;;;;23.15;16.33;;;;;;;4.69;100.00;102387.03;5031198;28;20109;-60
2022/10/12 01:53:26;;;;;;;24.60;16.38;;;;;;;4.64;100.00;102377.81;5030692;28;20056;-58
2022/10/12 01:56:15;;;;;;;24.23;16.45;;;;;;;4.69;100.00;102386.19;5030689;28;20096;-59
2022/10/12 01:58:56;;;;;;;22.35;15.57;;;;;;;4.69;100.00;102384.28;5030802;28;20057;-59
2022/10/12 02:02:05;;;;;;;24.40;16.65;;;;;;;4.69;100.00;102386.19;5031176;28;20065;-60
2022/10/12 02:04:39;;;;;;;25.00;16.52;;;;;;;4.67;100.00;102386.44;5031600;28;20022;-59
2022/10/12 02:07:19;;;;;;;;;;;;;;;4.72;100.00;102384.91;5031402;28;20034;-59
2022/10/12 02:09:44;;;;;;;23.58;15.95;;;;;;;4.65;100.00;102383.09;5029450;28;19913;-60
2022/10/12 02:12:20;;;;;;;22.85;16.35;;;;;;;4.57;100.00;102372.44;5030273;28;20140;-59
2022/10/12 02:14:51;;;;;;;25.45;16.52;;;;;;;4.52;100.00;102367.63;5030252;28;20064;-59
2022/10/12 02:17:19;;;;;;;25.80;16.20;;;;;;;4.57;100.00;102374.31;5030095;28;20099;-59
2022/10/12 02:19:51;;;;;;;24.45;16.63;;;;;;;4.55;100.00;102373.69;5030301;28;20029;-59
2022/10/12 02:22:17;;;;;;;23.52;16.00;;;;;;;4.53;100.00;102373.94;5030581;28;20063;-59
2022/10/12 02:24:46;;;;;;;24.77;16.98;;;;;;;4.46;100.00;102356.72;5030746;28;20037;-59
2022/10/12 02:27:13;;;;;;;24.35;15.75;;;;;;;4.51;100.00;102370.56;5030423;28;20026;-59
2022/10/12 02:29:42;;;;;;;24.73;16.02;;;;;;;4.48;100.00;102363.66;5030671;28;20033;-59
2022/10/12 02:32:28;;;;;;;24.08;16.40;;;;;;;4.43;100.00;102358.03;5030158;28;20561;-57
2022/10/12 02:35:26;;;;;;;24.33;16.10;;;;;;;4.48;100.00;102362.84;5029849;28;20046;-60
2022/10/12 02:38:11;;;;;;;22.83;16.15;;;;;;;4.44;100.00;102367.91;5030540;28;20029;-59
2022/10/12 02:40:43;;;;;;;23.98;15.90;;;;;;;4.41;100.00;102365.63;5030398;28;20037;-59
2022/10/12 02:43:20;;;;;;;22.73;16.10;;;;;;;4.39;100.00;102359.53;5030171;28;20028;-60
2022/10/12 02:45:47;;;;;;;21.67;15.15;;;;;;;4.37;100.00;102364.41;5030757;28;20029;-60
2022/10/12 02:48:19;;;;;;;27.48;16.70;;;;;;;4.26;100.00;102354.19;5030908;28;20060;-59
2022/10/12 02:50:46;;;;;;;25.13;16.23;;;;;;;4.32;100.00;102365.06;5030885;28;20116;-60
2022/10/12 02:53:12;;;;;;;24.10;15.35;;;;;;;4.27;100.00;102366.81;5030314;28;20034;-59
2022/10/12 02:55:48;;;;;;;22.67;15.77;;;;;;;4.21;100.00;102363.94;5031006;28;20411;-59
2022/10/12 02:58:13;;;;;;;24.27;15.13;;;;;;;4.19;100.00;102366.06;5030471;28;20033;-60
2022/10/12 03:00:39;;;;;;;22.48;15.35;;;;;;;4.17;100.00;102359.97;5030437;28;20123;-59
2022/10/12 03:03:04;;;;;;;23.27;15.90;;;;;;;4.16;100.00;102358.28;5030383;28;20470;-59
2022/10/12 03:05:29;;;;;;;22.98;16.35;;;;;;;4.16;100.00;102349.22;5030405;28;20025;-61
2022/10/12 03:07:54;;;;;;;23.13;16.15;;;;;;;4.13;100.00;102347.78;5030330;28;20477;-59
2022/10/12 03:10:20;;;;;;;23.73;15.55;;;;;;;4.13;100.00;102356.00;5028465;28;20095;-59
2022/10/12 03:12:45;;;;;;;22.08;15.63;;;;;;;4.09;100.00;102346.56;5029707;28;20029;-59
2022/10/12 03:15:10;;;;;;;24.40;15.82;;;;;;;3.98;100.00;102330.84;5030244;28;20103;-59
2022/10/12 03:17:36;;;;;;;24.42;15.50;;;;;;;4.07;100.00;102343.19;5029657;28;20058;-60
2022/10/12 03:20:01;;;;;;;23.20;16.08;;;;;;;4.06;100.00;102342.38;5029348;28;20033;-60
2022/10/12 03:22:26;;;;;;;25.27;15.93;;;;;;;4.04;100.00;102347.22;5028038;28;20091;-61
2022/10/12 03:24:51;;;;;;;22.88;16.00;;;;;;;4.04;100.00;102344.50;5030211;28;20026;-60
2022/10/12 03:27:17;;;;;;;23.85;16.15;;;;;;;3.94;100.00;102329.66;5033392;28;20108;-60
2022/10/12 03:29:42;;;;;;;23.25;15.55;;;;;;;3.98;100.00;102341.81;5034155;28;20041;-61
2022/10/12 03:32:07;;;;;;;24.90;15.45;;;;;;;3.95;100.00;102339.53;5032694;28;20036;-60
2022/10/12 03:34:32;;;;;;;24.38;15.32;;;;;;;3.92;100.00;102342.72;5033850;28;20037;-60
2022/10/12 03:36:58;;;;;;;21.75;14.95;;;;;;;3.88;100.00;102340.41;5034006;28;20022;-60
2022/10/12 03:39:23;;;;;;;22.67;15.05;;;;;;;3.85;100.00;102340.03;5034225;28;20170;-61
2022/10/12 03:41:48;;;;;;;25.35;16.20;;;;;;;3.79;100.00;102340.94;5033677;28;20300;-59
2022/10/12 03:44:13;;;;;;;21.65;15.27;;;;;;;3.80;100.00;102339.88;5033469;28;20045;-59
2022/10/12 03:46:39;;;;;;;23.95;15.43;;;;;;;3.76;100.00;102342.22;5033469;28;20021;-61
2022/10/12 03:49:04;;;;;;;22.08;15.07;;;;;;;3.73;100.00;102340.75;5032381;28;20473;-60
2022/10/12 03:51:29;;;;;;;24.38;17.50;;;;;;;3.71;100.00;102339.31;5032998;28;20033;-58
2022/10/12 03:53:55;;;;;;;24.02;16.95;;;;;;;3.65;100.00;102318.31;5033195;28;20048;-60
2022/10/12 03:56:20;;;;;;;26.40;16.35;;;;;;;3.70;100.00;102332.16;5033170;28;20512;-59
2022/10/12 03:58:45;;;;;;;24.75;17.20;;;;;;;3.68;100.00;102335.13;5033313;28;20032;-59
2022/10/12 04:01:10;;;;;;;25.65;17.00;;;;;;;3.67;100.00;102327.97;5033325;28;20033;-59
2022/10/12 04:03:36;;;;;;;26.95;17.00;;;;;;;3.65;100.00;102330.09;5032963;28;20057;-58
2022/10/12 04:06:01;;;;;;;24.65;17.50;;;;;;;3.62;100.00;102329.69;5032918;28;20033;-59
2022/10/12 04:08:27;;;;;;;25.60;16.48;;;;;;;3.59;100.00;102328.25;5033180;28;20030;-58
2022/10/12 04:10:53;;;;;;;25.17;17.23;;;;;;;3.57;100.00;102327.63;5032921;28;20158;-59
2022/10/12 04:13:19;;;;;;;25.15;16.70;;;;;;;3.54;100.00;102326.19;5032780;28;20027;-59
2022/10/12 04:15:44;;;;;;;27.02;17.08;;;;;;;3.51;100.00;102326.63;5032433;28;20053;-58
2022/10/12 04:18:10;;;;;;;25.05;16.75;;;;;;;3.48;100.00;102324.34;5032564;28;20029;-58
2022/10/12 04:20:35;;;;;;;24.25;16.40;;;;;;;3.46;100.00;102325.59;5032597;28;20030;-59
2022/10/12 04:23:01;;;;;;;24.63;17.10;;;;;;;3.43;100.00;102327.75;5032549;28;20033;-57
2022/10/12 04:25:26;;;;;;;26.75;17.45;;;;;;;3.41;100.00;102321.66;5032399;28;20096;-59
2022/10/12 04:27:51;;;;;;;24.92;16.77;;;;;;;3.36;100.00;102320.63;5032909;28;20025;-59
2022/10/12 04:30:16;;;;;;;24.33;17.48;;;;;;;3.36;100.00;102316.00;5031488;28;20025;-58
2022/10/12 04:32:42;;;;;;;25.17;17.23;;;;;;;3.37;100.00;102316.84;5032640;28;20025;-58
2022/10/12 04:35:07;;;;;;;26.05;16.90;;;;;;;3.37;100.00;102314.94;5031812;28;20080;-59
2022/10/12 04:37:33;;;;;;;26.20;17.60;;;;;;;3.35;100.00;102313.47;5032026;28;20450;-59
2022/10/12 04:39:58;;;;;;;26.77;17.67;;;;;;;3.34;100.00;102318.13;5032191;28;20036;-58
2022/10/12 04:42:24;;;;;;;25.98;17.75;;;;;;;3.34;100.00;102317.28;5032186;28;20030;-58
2022/10/12 04:44:49;;;;;;;25.05;17.65;;;;;;;3.26;100.00;102308.28;5032373;28;20025;-59
2022/10/12 04:47:14;;;;;;;24.00;17.35;;;;;;;3.31;100.00;102318.56;5031824;28;20028;-63
2022/10/12 04:49:40;;;;;;;25.90;18.73;;;;;;;3.30;100.00;102318.78;5032248;28;20028;-59
2022/10/12 04:52:05;;;;;;;24.23;16.40;;;;;;;3.30;100.00;102329.72;5031788;28;20040;-59
2022/10/12 04:54:31;;;;;;;23.40;16.77;;;;;;;3.28;100.00;102330.78;5031683;28;20029;-59
2022/10/12 04:56:57;;;;;;;23.48;16.40;;;;;;;3.26;100.00;102324.69;5032002;28;20041;-59
2022/10/12 04:59:22;;;;;;;27.08;17.70;;;;;;;3.27;100.00;102337.31;5031971;28;20060;-59
2022/10/12 05:01:47;;;;;;;26.40;17.83;;;;;;;3.25;100.00;102330.41;5032082;28;20033;-60
2022/10/12 05:04:13;;;;;;;23.80;16.10;;;;;;;3.22;100.00;102336.28;5031771;28;20029;-60
2022/10/12 05:06:38;;;;;;;25.98;16.83;;;;;;;3.22;100.00;102336.28;5032282;28;20373;-59
2022/10/12 05:09:03;;;;;;;25.27;17.67;;;;;;;3.19;100.00;102331.25;5032520;28;20045;-60
2022/10/12 05:11:29;;;;;;;27.70;17.17;;;;;;;3.20;100.00;102324.72;5032176;28;20037;-59
2022/10/12 05:13:54;;;;;;;28.58;17.73;;;;;;;3.15;100.00;102321.84;5031444;28;20569;-58
2022/10/12 05:16:19;;;;;;;27.10;17.35;;;;;;;3.15;100.00;102327.31;5032015;28;20052;-59
2022/10/12 05:18:45;;;;;;;31.05;17.80;;;;;;;3.16;100.00;102324.34;5031745;28;20025;-61
2022/10/12 05:21:10;;;;;;;25.38;17.90;;;;;;;3.14;100.00;102320.97;5031858;28;20037;-59
2022/10/12 05:23:35;;;;;;;24.83;16.88;;;;;;;3.15;100.00;102319.09;5031730;28;20022;-60
2022/10/12 05:26:01;;;;;;;25.83;17.45;;;;;;;3.15;100.00;102321.84;5031835;28;20029;-59
2022/10/12 05:28:26;;;;;;;24.75;17.42;;;;;;;3.11;100.00;102318.69;5031478;28;20041;-59
2022/10/12 05:30:52;;;;;;;28.35;18.30;;;;;;;3.10;100.00;102312.38;5031343;28;20508;-59
2022/10/12 05:33:17;;;;;;;29.30;18.35;;;;;;;3.10;100.00;102308.81;5031634;28;20484;-60
2022/10/12 05:35:43;;;;;;;26.35;18.20;;;;;;;3.08;100.00;102310.94;5031936;28;20022;-60
2022/10/12 05:38:09;;;;;;;25.75;18.63;;;;;;;3.08;100.00;102311.75;5032367;28;20049;-60
2022/10/12 05:40:34;;;;;;;28.13;20.30;;;;;;;3.08;100.00;102311.75;5031893;28;20034;-60
2022/10/12 05:43:00;;;;;;;33.88;25.05;;;;;;;3.08;100.00;102314.47;5031774;28;20064;-59
2022/10/12 05:45:25;;;;;;;34.60;24.42;;;;;;;3.08;100.00;102308.19;5032015;28;20025;-60
2022/10/12 05:47:50;;;;;;;27.10;20.80;;;;;;;3.07;100.00;102311.97;5031517;28;20053;-61
2022/10/12 05:50:16;;;;;;;27.13;19.02;;;;;;;3.05;100.00;102309.47;5030873;28;20112;-61
2022/10/12 05:52:41;;;;;;;27.70;18.40;;;;;;;3.05;100.00;102303.16;5031149;28;20060;-60
2022/10/12 05:55:07;;;;;;;26.92;18.85;;;;;;;3.06;100.00;102307.56;5031379;28;20076;-60
2022/10/12 05:57:32;;;;;;;28.08;19.05;;;;;;;3.06;100.00;102308.44;5030978;28;20025;-61
2022/10/12 05:59:57;;;;;;;26.02;18.23;;;;;;;3.06;100.00;102305.69;5032020;28;20098;-60
2022/10/12 06:02:23;;;;;;;24.33;17.15;;;;;;;3.07;100.00;102311.97;5031904;28;20541;-61
2022/10/12 06:04:48;;;;;;;27.77;18.63;;;;;;;3.07;100.00;102301.03;5032089;28;20473;-60
2022/10/12 06:07:13;;;;;;;27.70;18.02;;;;;;;3.10;100.00;102317.03;5030802;28;20040;-60
2022/10/12 06:09:38;;;;;;;28.17;18.30;;;;;;;3.12;100.00;102315.75;5031516;28;20076;-60
2022/10/12 06:12:05;;;;;;;26.58;18.17;;;;;;;3.15;100.00;102319.09;5032122;28;20110;-59
2022/10/12 06:14:30;;;;;;;27.35;17.45;;;;;;;3.17;100.00;102314.22;5030972;28;20052;-59
2022/10/12 06:16:55;;;;;;;26.90;18.50;;;;;;;3.17;100.00;102301.41;5030472;28;20021;-60
2022/10/12 06:19:21;;;;;;;25.33;17.48;;;;;;;3.27;100.00;102306.38;5031914;28;20517;-59
2022/10/12 06:21:46;;;;;;;27.25;18.38;;;;;;;3.33;100.00;102307.38;5031848;28;20041;-60
2022/10/12 06:24:11;;;;;;;26.70;19.00;;;;;;;3.37;100.00;102309.47;5031647;28;20026;-60
2022/10/12 06:26:37;;;;;;;27.58;18.50;;;;;;;3.47;100.00;102310.88;5031678;28;20559;-60
2022/10/12 06:29:02;;;;;;;30.33;18.77;;;;;;;3.50;100.00;102308.53;5030990;28;20025;-60
2022/10/12 06:31:28;;;;;;;27.98;17.85;;;;;;;3.56;100.00;102307.66;5029585;28;20044;-59
2022/10/12 06:33:53;;;;;;;27.45;18.52;;;;;;;3.64;100.00;102305.69;5029472;28;20029;-60
2022/10/12 06:36:19;;;;;;;24.73;17.27;;;;;;;3.71;100.00;102301.00;5029179;28;20119;-60
2022/10/12 06:38:44;;;;;;;27.15;17.95;;;;;;;3.79;100.00;102302.63;5030297;28;20022;-59
2022/10/12 06:41:10;;;;;;;26.92;19.20;;;;;;;3.84;100.00;102302.75;5031015;28;20037;-60
2022/10/12 06:43:35;;;;;;;26.20;17.83;;;;;;;3.89;100.00;102306.50;5031308;28;20033;-60
2022/10/12 06:46:01;;;;;;;29.42;18.85;;;;;;;3.94;100.00;102297.63;5029775;28;20025;-60
2022/10/12 06:48:27;;;;;;;27.85;18.17;;;;;;;4.01;100.00;102297.56;5029958;28;20041;-60
2022/10/12 06:50:52;;;;;;;27.05;19.13;;;;;;;4.08;100.00;102306.53;5031831;28;20017;-60
2022/10/12 06:53:18;;;;;;;26.70;18.83;;;;;;;4.15;100.00;102307.31;5031274;28;20324;-59
2022/10/12 06:55:43;;;;;;;27.95;18.48;;;;;;;4.23;100.00;102306.16;5031392;28;20070;-60
2022/10/12 06:58:09;;;;;;;30.38;18.23;;;;;;;4.29;100.00;102308.03;5031326;28;20021;-59
2022/10/12 07:00:35;;;;;;;29.00;19.10;;;;;;;4.37;100.00;102309.59;5030770;28;20033;-60
2022/10/12 07:03:00;;;;;;;28.58;18.88;;;;;;;4.44;100.00;102304.88;5031311;28;20523;-60
2022/10/12 07:05:26;;;;;;;28.50;18.77;;;;;;;4.50;100.00;102301.22;5031483;28;20086;-60
2022/10/12 07:07:51;;;;;;;31.58;18.38;;;;;;;4.58;100.00;102301.97;5031267;28;20370;-60
2022/10/12 07:10:16;;;;;;;26.75;17.67;;;;;;;4.63;100.00;102296.66;5031158;28;20033;-60
2022/10/12 07:12:42;;;;;;;29.83;18.77;;;;;;;4.67;100.00;102303.34;5030985;28;20036;-60
2022/10/12 07:15:08;;;;;;;25.17;18.50;;;;;;;4.71;100.00;102300.97;5031205;28;20041;-60
2022/10/12 07:17:33;;;;;;;27.88;18.25;;;;;;;4.76;100.00;102303.88;5030909;28;20033;-60
2022/10/12 07:19:58;;;;;;;27.13;19.00;;;;;;;4.78;100.00;102302.56;5046264;28;20342;-61
2022/10/12 07:22:24;;;;;;;28.83;19.15;;;;;;;4.81;100.00;102299.38;5030913;28;20373;-59
2022/10/12 07:24:49;;;;;;;28.13;18.73;;;;;;;4.88;100.00;102302.00;5030893;28;20036;-61
2022/10/12 07:27:14;;;;;;;29.45;18.35;;;;;;;4.92;100.00;102291.41;5030806;28;20057;-61
2022/10/12 07:29:39;;;;;;;28.83;19.17;;;;;;;4.96;100.00;102293.44;5030955;28;20078;-58
2022/10/12 07:32:06;;;;;;;28.50;19.20;;;;;;;5.01;100.00;102290.00;5030597;28;20084;-61
2022/10/12 07:34:32;;;;;;;29.20;19.35;;;;;;;5.05;100.00;102284.91;5030819;28;20021;-61
2022/10/12 07:36:57;;;;;;;26.35;19.10;;;;;;;5.09;100.00;102291.59;5030734;28;20104;-61
2022/10/12 07:39:23;;;;;;;27.35;19.27;;;;;;;5.12;100.00;102288.41;5022386;28;20109;-62
2022/10/12 07:41:49;;;;;;;29.52;20.02;;;;;;;5.15;100.00;102294.25;5009141;28;20466;-62
2022/10/12 07:44:15;;;;;;;30.23;20.02;;;;;;;5.22;100.00;102296.03;5009315;28;20092;-61
2022/10/12 07:46:40;;;;;;;32.17;19.38;;;;;;;5.30;100.00;102290.22;5008903;28;20033;-62
2022/10/12 07:49:05;;;;;;;28.17;19.92;;;;;;;5.52;100.00;102297.91;5008853;28;20026;-62
2022/10/12 07:51:31;;;;;;;34.50;19.75;;;;;;;5.67;100.00;102297.44;5008660;28;20080;-61
2022/10/12 07:53:59;;;;;;;30.17;20.67;;;;;;;5.75;100.00;102306.19;5009090;28;20041;-62
2022/10/12 07:56:25;;;;;;;29.85;19.77;;;;;;;5.78;100.00;102302.94;5008922;28;20143;-62
2022/10/12 07:58:55;;;;;;;28.98;19.65;;;;;;;5.83;100.00;102307.72;5007164;28;20041;-62
2022/10/12 08:01:22;;;;;;;33.60;20.55;;;;;;;5.90;100.00;102299.38;5008683;28;20034;-62
2022/10/12 08:03:49;;;;;;;30.13;20.48;;;;;;;6.02;100.00;102299.41;5008747;28;20065;-62
2022/10/12 08:06:17;;;;;;;29.25;20.75;;;;;;;6.14;100.00;102305.72;5008935;28;20394;-62
2022/10/12 08:08:43;;;;;;;29.30;20.20;;;;;;;6.26;100.00;102302.13;5008931;28;20034;-62
2022/10/12 08:11:09;;;;;;;31.08;21.45;;;;;;;6.33;100.00;102302.84;5011204;28;20030;-62
2022/10/12 08:13:36;;;;;;;30.20;21.13;;;;;;;6.42;100.00;102303.31;5020518;28;20036;-64
2022/10/12 08:16:04;;;;;;;31.40;20.77;;;;;;;6.50;100.00;102302.94;5035031;28;20126;-62
2022/10/12 08:18:29;;;;;;;30.65;22.08;;;;;;;6.58;100.00;102294.31;5033767;28;20048;-61
2022/10/12 08:20:55;;;;;;;31.92;22.38;;;;;;;6.63;100.00;102304.56;5033212;28;20454;-62
2022/10/12 08:23:20;;;;;;;33.03;22.10;;;;;;;6.62;100.00;102306.47;5031882;28;20121;-61
2022/10/12 08:25:56;;;;;;;29.73;20.85;;;;;;;6.67;100.00;102312.09;5031940;28;20029;-62
2022/10/12 08:28:22;;;;;;;30.83;21.33;;;;;;;6.70;100.00;102305.25;5031890;28;20059;-62
2022/10/12 08:30:48;;;;;;;31.88;20.65;;;;;;;6.71;100.00;102305.00;5031985;28;20187;-61
2022/10/12 08:33:14;;;;;;;31.15;21.65;;;;;;;6.79;100.00;102291.97;5031631;28;20049;-62
2022/10/12 08:35:41;;;;;;;33.20;21.90;;;;;;;6.92;100.00;102291.66;5031698;28;20033;-63
2022/10/12 08:38:07;;;;;;;32.80;23.50;;;;;;;7.03;100.00;102300.97;5031845;28;20029;-64
2022/10/12 08:40:36;;;;;;;36.53;23.63;;;;;;;7.11;100.00;102289.53;5031528;28;20040;-62
2022/10/12 08:43:18;;;;;;;32.25;23.70;;;;;;;7.17;100.00;102276.72;5031504;28;20037;-62
2022/10/12 08:45:50;;;;;;;33.72;23.48;;;;;;;7.38;100.00;102286.16;5031588;28;20037;-63
2022/10/12 08:48:22;;;;;;;32.95;23.83;;;;;;;7.45;100.00;102277.75;5031590;28;20048;-61
2022/10/12 08:50:53;;;;;;;36.22;24.25;;;;;;;7.65;100.00;102277.22;5031584;28;20473;-62
2022/10/12 08:53:34;;;;;;;39.17;24.25;;;;;;;7.76;100.00;102292.00;5031239;28;20036;-63
2022/10/12 08:56:00;;;;;;;36.95;24.85;;;;;;;7.88;100.00;102286.41;5031125;28;20524;-62
2022/10/12 08:58:32;;;;;;;37.22;26.02;;;;;;;8.01;100.00;102288.78;5029569;28;20025;-62
2022/10/12 09:01:35;;;;;;;37.08;25.27;;;;;;;8.15;100.00;102292.00;5031309;28;20029;-63
2022/10/12 09:04:40;;;;;;;35.20;25.20;;;;;;;8.27;100.00;102283.63;5031479;28;20034;-63
2022/10/12 09:07:18;;;;;;;36.72;23.85;;;;;;;8.36;100.00;102281.28;5030888;28;20025;-63
2022/10/12 09:10:17;;;;;;;33.03;24.88;;;;;;;8.49;99.61;102286.44;5031710;28;20550;-62
2022/10/12 09:13:01;;;;;;;37.88;24.42;;;;;;;8.54;98.45;102285.69;5031368;28;20029;-62
2022/10/12 09:15:36;;;;;;;34.33;24.65;;;;;;;8.57;98.41;102288.75;5030867;28;20572;-62
2022/10/12 09:18:10;;;;;;;37.05;24.92;;;;;;;8.56;97.74;102286.22;5031031;28;20113;-62
2022/10/12 09:20:46;;;;;;;38.83;26.25;;;;;;;8.61;97.99;102302.88;5030953;28;20037;-61
2022/10/12 09:23:20;;;;;;;36.95;25.40;;;;;;;8.64;97.66;102301.50;5030480;28;20025;-62
2022/10/12 09:25:46;;;;;;;34.70;25.75;;;;;;;8.72;97.95;102304.66;5030960;28;20108;-61
2022/10/12 09:28:30;;;;;;;35.67;25.30;;;;;;;8.74;97.13;102296.94;5030811;28;20029;-62
2022/10/12 09:31:09;;;;;;;35.42;26.15;;;;;;;8.75;96.59;102297.78;5030886;28;20048;-62
2022/10/12 09:33:47;;;;;;;35.30;25.30;;;;;;;8.86;96.57;102307.00;5030704;28;20033;-62
2022/10/12 09:36:18;;;;;;;35.53;25.52;;;;;;;8.88;96.19;102313.94;5030716;28;20037;-62
2022/10/12 09:38:44;;;;;;;38.35;25.48;;;;;;;8.93;96.55;102302.09;5030666;28;20041;-61
2022/10/12 09:41:20;;;;;;;36.60;25.67;;;;;;;9.00;96.61;102299.16;5030584;28;20108;-62
2022/10/12 09:43:53;;;;;;;35.90;25.65;;;;;;;9.08;96.70;102289.56;5030543;28;20053;-63
2022/10/12 09:46:45;;;;;;;34.70;25.23;;;;;;;9.28;96.78;102292.53;5030558;28;20033;-63
2022/10/12 09:49:10;;;;;;;35.15;26.55;;;;;;;9.54;95.50;102290.00;5030364;28;20025;-62
2022/10/12 09:51:36;;;;;;;35.67;25.63;;;;;;;9.67;94.71;102280.44;5030336;28;20029;-62
2022/10/12 09:54:04;;;;;;;34.17;25.52;;;;;;;9.86;92.76;102291.06;5030461;28;20048;-63
2022/10/12 09:56:40;;;;;;;35.88;25.85;;;;;;;9.95;92.72;102287.53;5030018;28;20029;-62
2022/10/12 09:59:25;;;;;;;37.97;26.15;;;;;;;10.00;91.59;102283.97;5029727;28;20025;-63
2022/10/12 10:02:03;;;;;;;34.33;26.02;;;;;;;10.08;91.95;102286.25;5030199;28;20517;-61
2022/10/12 10:04:29;;;;;;;38.63;27.33;;;;;;;10.28;91.41;102288.28;5030054;28;20045;-62
2022/10/12 10:06:55;;;;;;;39.35;28.13;;;;;;;10.42;90.05;102291.41;5030202;28;20065;-62
2022/10/12 10:09:26;;;;;;;36.00;24.92;;;;;;;10.54;89.20;102291.19;5030149;28;20021;-62
2022/10/12 10:11:51;;;;;;;35.95;27.08;;;;;;;10.59;87.85;102282.91;5030172;28;20063;-62
2022/10/12 10:14:17;;;;;;;35.97;25.48;;;;;;;10.69;87.71;102267.44;5029991;28;20441;-62
2022/10/12 10:16:51;;;;;;;36.10;26.52;;;;;;;10.79;86.55;102269.41;5029775;28;20047;-62
2022/10/12 10:19:20;;;;;;;35.92;25.77;;;;;;;10.81;85.81;102245.91;5030079;28;20057;-62
2022/10/12 10:21:45;;;;;;;37.33;25.60;;;;;;;10.86;85.77;102248.66;5028786;28;20052;-62
2022/10/12 10:24:26;;;;;;;39.40;26.35;;;;;;;10.98;86.52;102253.94;5029188;28;20061;-61
2022/10/12 10:26:59;;;;;;;36.92;26.55;;;;;;;11.07;85.40;102260.59;5029537;28;20405;-62
2022/10/12 10:29:27;;;;;;;35.83;26.30;;;;;;;11.18;85.17;102249.53;5028404;28;20029;-61
2022/10/12 10:32:11;;;;;;;36.65;25.58;;;;;;;11.29;84.92;102258.72;5029601;28;20041;-62
2022/10/12 10:34:37;;;;;;;33.67;24.60;;;;;;;11.36;82.46;102262.03;5028366;28;20036;-62
2022/10/12 10:37:05;;;;;;;32.58;23.27;;;;;;;11.41;81.78;102264.78;5028036;28;20040;-62
2022/10/12 10:39:45;;;;;;;33.20;23.73;;;;;;;11.43;83.41;102262.56;5027984;28;20025;-62
2022/10/12 10:42:27;;;;;;;36.22;24.83;;;;;;;11.41;83.56;102258.41;5029370;28;20061;-63
2022/10/12 10:44:57;;;;;;;33.60;24.85;;;;;;;11.46;83.08;102264.78;5029211;28;20055;-62
2022/10/12 10:47:23;;;;;;;34.67;23.50;;;;;;;11.53;83.01;102261.72;5029034;28;20129;-62
2022/10/12 10:50:00;;;;;;;33.35;22.83;;;;;;;11.63;82.61;102253.41;5029460;28;20117;-62
2022/10/12 10:52:32;;;;;;;35.20;22.30;;;;;;;11.66;81.29;102249.25;5029032;28;20026;-62
2022/10/12 10:55:10;;;;;;;36.67;23.75;;;;;;;11.78;81.23;102260.88;5029029;28;20449;-62
2022/10/12 10:57:43;;;;;;;34.25;23.35;;;;;;;11.75;80.45;102250.34;5027253;28;20513;-62
2022/10/12 11:00:15;;;;;;;31.73;23.33;;;;;;;11.76;81.13;102251.19;5029387;28;20059;-62
2022/10/12 11:02:43;;;;;;;34.05;23.08;;;;;;;11.89;80.21;102245.06;5028815;28;20041;-62
2022/10/12 11:05:25;;;;;;;33.03;23.40;;;;;;;11.99;80.35;102235.91;5028872;28;20477;-62
2022/10/12 11:07:56;;;;;;;31.25;22.40;;;;;;;12.05;79.66;102233.94;5028903;28;20077;-62
2022/10/12 11:10:24;;;;;;;33.17;21.35;;;;;;;12.14;79.18;102244.16;5029232;28;20038;-63
2022/10/12 11:12:58;;;;;;;34.83;22.05;;;;;;;12.20;79.06;102233.88;5029017;28;20772;-62
2022/10/12 11:15:33;;;;;;;29.90;20.42;;;;;;;12.20;78.62;102221.97;5029048;28;20191;-62
2022/10/12 11:18:17;;;;;;;31.70;20.48;;;;;;;12.32;78.21;102222.50;5008178;28;20022;-63